Pagina principale
METAR-TAF:

METAR-TAF

Aeroporti :

Luxeuil-les-Bains, Francia

latitudine: 47-47N, longitudine: 006-21E, altezza: 278 m

Osservazione

Il bollettino è stato emesso 44 minuti fa, alle 01:30 UTC
Vento 6 kt da ovest/sud-ovest, variando fra sud/sud-ovest e ovest/nord-ovest
Temperature 11°C
Umidità 82%
Pressione 1027 hPa
Visibilità 10 km o più
Cielo coperto ad un'altezza di 1600 ft

METAR: LFSX 240130Z AUTO 24006KT 210V290 9999 OVC016 11/08 Q1027

Ora: 03:14 (02:14 UTC)


TAF: mancante

Osservazioni e previsioni meteorologiche di più di 4000 aeroporti (messaggi METAR e TAF).

Le stazioni disponibili sono rappresentate dai dischi gialli e rossi sulla carta.

Puntare il mouse per vedere il nome della stazione.

Clicca sopra per visualizzare le osservazioni e previsioni meteorologiche.

Per cambiare la mappa : fare clic sui pulsanti verdi con una croce nera per ingrandire, il pulsante verde con un trattino per diminuire, o sulla freccia verde per le mappe adiacenti.


METAR-TAF: